KFFT/FFT METAR and TAF weather

Enter ICAO airport designator
Station Type Date Time Source
KFFT METAR 2023/01/29 19:16 UTC NOAA

KFFT 291916Z AUTO 23008KT 3SM BR OVC005 08/07 A3011 RMK AO2 CIG 004V009 T00780067


Station Type Date Time Source
KFFT Decoded METAR 2023/01/29 19:16 UTC NOAA

FRANKFORT CAPITAL CITY AIRPORT , KY, United States (KFFT) 38-11N 84-54W 236M
Jan 29, 2023 - 02:16 PM EST / 2023.01.29 1916 UTC
Wind: from the SW (230 degrees) at 9 MPH (8 KT):0
Visibility: 3 mile(s):0
Sky conditions: overcast
Weather: mist
Temperature: 46.0 F (7.8 C)
Dew Point: 44.1 F (6.7 C)
Relative Humidity: 92%
Pressure (altimeter): 30.11 in. Hg (1019 hPa)
ob: KFFT 291916Z AUTO 23008KT 3SM BR OVC005 08/07 A3011 RMK AO2 CIG 004V009 T00780067
cycle: 19

Station Type Date Time Source
KFFT TAF UTC NOAA

Error!

Example: see airport list